Ardmore, OK (73401)

10:06 AM CDT on August 20, 2014 (GMT -0500)
Ardmore Weather Live | Change Station
CLOSE
Current Station
Personal Weather Station
Location: Ardmore, Ok
Elevation: 810 ft
Nearby Weather Stations

Elev 810 ft 34.15 °N, 97.11 °W | Updated 2 seconds ago

Scattered Clouds
Scattered Clouds
79.9 °F
Feels Like 84 °F
N
2.1
Wind Variable Wind from South
Gusts 4.6 mph

Today
High -- | Low -- °F
--% Chance of Precip.
Yesterday
High -- | Low -- °F
Precip. -- in
6:53 AM 8:09 PM
Waning Crescent, 21% visible
Pressure 29.97 in
Visibility 10.0 miles
Clouds Scattered Clouds 4600 ft
Scattered Clouds 6000 ft
Scattered Clouds 7000 ft
Heat Index 84 °F
Dew Point 74 °F
Humidity 82%
Rainfall 0.05 in
Snow Depth Not available.
UV 1.7 out of 12
Pollen 9.60 out of 12
Air Quality Not available.
Flu Activity Not available.
METAR K1F0 201455Z AUTO 21004KT 10SM SCT046 SCT060 SCT070 26/22 A2997 RMK AO2

More Conditions Fewer Conditions

Pressure 29.97 in
Visibility 10.0 miles
Clouds Scattered Clouds 4600 ft
Scattered Clouds 6000 ft
Scattered Clouds 7000 ft
Heat Index 84 °F
Dew Point 74 °F
Humidity 82%
Rainfall 0.05 in
Snow Depth Not available.
UV 1.7 out of 12
Pollen 9.60 out of 12
Air Quality Not available.
Flu Activity Not available.
METAR K1F0 201455Z AUTO 21004KT 10SM SCT046 SCT060 SCT070 26/22 A2997 RMK AO2

More Conditions Fewer Conditions

10-Day Weather Forecast

Almanac

Astronomy

Aug. 20, 2014 Rise Set
Actual Time 6:53 AM CDT 8:09 PM CDT
Civil Twilight 6:27 AM CDT 8:35 PM CDT
Nautical Twilight 5:56 AM CDT 9:06 PM CDT
Astronomical Twilight 5:23 AM CDT 9:39 PM CDT
Moon 2:39 AM CDT 4:51 PM CDT
Length of Visible Light 14h 08m
Length of Day
13h 16m
Tomorrow will be 1m 56s shorter.
Waning Crescent, 21% of the Moon is Illuminated
Today
Waning Crescent
Aug 25
New
Sep 2
First Quarter
Sep 8
Full
Sep 15
Last Quarter

Today's Extremes

State Highs State Lows

Community

WunderPhotos

Upload Photos

1,745,661 photos uploaded!

Nearby

Snow Depth

Station Depth Elevation
No new snow has been reported.

Earthquake Activity

City Distance Mag. Time & Date
Langston, Oklahoma 119 miles 2.9 9:49 PM CDT
2014-08-14
Boley, Oklahoma 91 miles 2.8 11:38 AM CDT
2014-08-14
Langston, Oklahoma 117 miles 3.1 9:15 AM CDT
2014-08-14
Minimum magnitude displayed is 2.5.

Coastal Water Temperatures

Place Temperature
No Stations Reporting

Nearby Weather Stations